createdAt,value
2023-03-28T00:00:18.463Z,3.26
2023-03-28T00:02:44.908Z,3.28
2023-03-28T00:05:11.456Z,3.24
2023-03-28T00:07:38.440Z,3.25
2023-03-28T00:10:06.660Z,3.25
2023-03-28T00:12:33.108Z,3.24
2023-03-28T00:15:00.789Z,3.23
2023-03-28T00:17:27.233Z,3.20
2023-03-28T00:19:53.689Z,3.22
2023-03-28T00:22:21.021Z,3.19
2023-03-28T00:24:48.798Z,3.11
2023-03-28T00:27:15.701Z,3.11
2023-03-28T00:29:42.219Z,3.14
2023-03-28T00:32:08.670Z,3.13
2023-03-28T00:34:35.180Z,3.12
2023-03-28T00:37:05.420Z,3.13
2023-03-28T00:39:34.510Z,3.12
2023-03-28T00:42:01.719Z,3.09
2023-03-28T00:44:57.961Z,3.12
2023-03-28T00:47:46.309Z,3.16
2023-03-28T00:50:21.364Z,3.15
2023-03-28T00:52:57.206Z,3.13
2023-03-28T00:55:28.485Z,3.15
2023-03-28T00:57:55.707Z,3.20
2023-03-28T01:00:23.563Z,3.15
2023-03-28T01:02:53.264Z,3.18
2023-03-28T01:05:23.829Z,3.20
2023-03-28T01:07:53.429Z,3.20
2023-03-28T01:10:20.689Z,3.16
2023-03-28T01:12:47.874Z,3.19
2023-03-28T01:15:14.612Z,3.22
2023-03-28T01:17:41.400Z,3.23
2023-03-28T01:20:37.065Z,3.17
2023-03-28T01:23:21.620Z,3.19
2023-03-28T01:25:57.097Z,3.18
2023-03-28T01:28:43.535Z,3.16
2023-03-28T01:31:28.667Z,3.13
2023-03-28T01:34:24.794Z,3.15
2023-03-28T01:37:17.786Z,3.10
2023-03-28T01:40:00.182Z,3.08
2023-03-28T01:42:47.184Z,3.06
2023-03-28T01:45:19.224Z,3.01
2023-03-28T01:47:51.901Z,2.99
2023-03-28T01:50:24.682Z,2.96
2023-03-28T01:52:58.353Z,2.95
2023-03-28T01:55:54.033Z,2.86
2023-03-28T01:58:30.406Z,2.77
2023-03-28T02:01:05.474Z,2.71
2023-03-28T02:03:33.750Z,2.73
2023-03-28T02:06:01.694Z,2.70
2023-03-28T02:08:30.422Z,2.71
2023-03-28T02:10:57.228Z,2.68
2023-03-28T02:13:29.424Z,2.68
2023-03-28T02:15:57.980Z,2.66
2023-03-28T02:18:36.932Z,2.63
2023-03-28T02:21:30.843Z,2.65
2023-03-28T02:23:57.318Z,2.62
2023-03-28T02:26:24.623Z,2.60
2023-03-28T02:28:53.929Z,2.63
2023-03-28T02:31:21.601Z,2.67
2023-03-28T02:33:49.252Z,2.61
2023-03-28T02:36:33.311Z,2.62
2023-03-28T02:39:11.972Z,2.62
2023-03-28T02:42:09.323Z,2.58
2023-03-28T02:45:04.244Z,2.55
2023-03-28T02:48:01.108Z,2.51
2023-03-28T02:50:36.905Z,2.54
2023-03-28T02:53:08.984Z,2.57
2023-03-28T02:55:59.021Z,2.55
2023-03-28T02:58:30.385Z,2.46
2023-03-28T03:00:56.872Z,2.47
2023-03-28T03:03:23.740Z,2.45
2023-03-28T03:05:50.276Z,2.40
2023-03-28T03:08:17.327Z,2.40
2023-03-28T03:10:43.737Z,2.43
2023-03-28T03:13:10.297Z,2.44
2023-03-28T03:15:36.765Z,2.42
2023-03-28T03:18:04.330Z,2.36
2023-03-28T03:20:33.978Z,2.37
2023-03-28T03:23:01.248Z,2.42
2023-03-28T03:25:28.263Z,2.41
2023-03-28T03:27:55.004Z,2.42
2023-03-28T03:30:21.634Z,2.42
2023-03-28T03:32:49.061Z,2.39
2023-03-28T03:35:15.706Z,2.38
2023-03-28T03:37:42.155Z,2.38
2023-03-28T03:40:09.814Z,2.38
2023-03-28T03:42:37.093Z,2.41
2023-03-28T03:45:04.283Z,2.40
2023-03-28T03:47:30.878Z,2.34
2023-03-28T03:49:57.326Z,2.35
2023-03-28T03:52:23.865Z,2.38
2023-03-28T03:54:50.582Z,2.37
2023-03-28T03:57:17.492Z,2.37
2023-03-28T03:59:44.000Z,2.36
2023-03-28T04:02:10.590Z,2.38
2023-03-28T04:04:37.173Z,2.33
2023-03-28T04:07:03.577Z,2.33
2023-03-28T04:09:30.056Z,2.32
2023-03-28T04:11:56.499Z,2.32
2023-03-28T04:14:23.135Z,2.33
2023-03-28T04:16:53.812Z,2.34
2023-03-28T04:19:20.460Z,2.35
2023-03-28T04:21:48.409Z,2.37
2023-03-28T04:24:15.792Z,2.32
2023-03-28T04:26:43.487Z,2.31
2023-03-28T04:29:10.495Z,2.30
2023-03-28T04:31:39.566Z,2.33
2023-03-28T04:34:06.748Z,2.25
2023-03-28T04:36:33.281Z,2.21
2023-03-28T04:39:02.301Z,2.18
2023-03-28T04:41:29.926Z,2.19
2023-03-28T04:43:56.375Z,2.17
2023-03-28T04:46:23.000Z,2.19
2023-03-28T04:48:49.506Z,2.11
2023-03-28T04:51:24.406Z,2.08
2023-03-28T04:53:50.817Z,2.07
2023-03-28T04:56:17.256Z,2.06
2023-03-28T04:58:43.755Z,2.10
2023-03-28T05:01:10.544Z,2.06
2023-03-28T05:03:38.092Z,2.12
2023-03-28T05:06:04.913Z,2.11
2023-03-28T05:08:32.720Z,2.15
2023-03-28T05:10:59.372Z,2.44
2023-03-28T05:13:25.966Z,2.49
2023-03-28T05:15:52.476Z,2.41
2023-03-28T05:18:18.944Z,2.38
2023-03-28T05:20:45.693Z,2.35
2023-03-28T05:23:12.111Z,2.32
2023-03-28T05:25:38.540Z,2.30
2023-03-28T05:28:05.080Z,2.34
2023-03-28T05:30:31.923Z,2.38
2023-03-28T05:32:59.528Z,2.39
2023-03-28T05:35:26.215Z,2.39
2023-03-28T05:37:52.736Z,2.39
2023-03-28T05:40:19.351Z,2.43
2023-03-28T05:42:45.857Z,2.46
2023-03-28T05:45:12.670Z,2.54
2023-03-28T05:47:39.249Z,2.61
2023-03-28T05:50:06.512Z,2.66
2023-03-28T05:52:32.939Z,2.71
2023-03-28T05:54:59.333Z,2.74
2023-03-28T05:57:25.898Z,2.72
2023-03-28T05:59:52.315Z,2.73
2023-03-28T06:02:20.680Z,2.81
2023-03-28T06:04:47.538Z,2.85
2023-03-28T06:07:14.323Z,2.94
2023-03-28T06:09:41.140Z,2.96
2023-03-28T06:12:07.719Z,2.97
2023-03-28T06:14:34.129Z,3.09
2023-03-28T06:17:00.723Z,3.11
2023-03-28T06:19:27.294Z,3.06
2023-03-28T06:21:54.061Z,3.11
2023-03-28T06:24:20.720Z,3.19
2023-03-28T06:26:47.168Z,3.22
2023-03-28T06:29:13.678Z,3.27
2023-03-28T06:31:40.470Z,3.37
2023-03-28T06:34:06.944Z,3.40
2023-03-28T06:36:33.541Z,3.44
2023-03-28T06:39:01.415Z,3.48
2023-03-28T06:41:27.946Z,3.49
2023-03-28T06:43:54.477Z,3.61
2023-03-28T06:46:20.987Z,3.72
2023-03-28T06:48:47.472Z,3.74
2023-03-28T06:51:13.946Z,3.79
2023-03-28T06:53:40.521Z,3.83
2023-03-28T06:56:07.698Z,3.87
2023-03-28T06:58:34.129Z,3.95
2023-03-28T07:01:00.982Z,4.06
2023-03-28T07:03:30.003Z,4.12
2023-03-28T07:05:56.723Z,4.19
2023-03-28T07:08:23.866Z,4.29
2023-03-28T07:10:50.507Z,4.36
2023-03-28T07:13:16.915Z,4.44
2023-03-28T07:15:43.345Z,4.55
2023-03-28T07:18:12.552Z,4.52
2023-03-28T07:20:39.999Z,4.54
2023-03-28T07:23:06.702Z,4.65
2023-03-28T07:25:34.721Z,4.73
2023-03-28T07:28:01.148Z,4.85
2023-03-28T07:30:27.560Z,4.81
2023-03-28T07:33:02.726Z,4.84
2023-03-28T07:35:34.425Z,4.94
2023-03-28T07:38:00.862Z,5.01
2023-03-28T07:40:27.378Z,5.05
2023-03-28T07:42:53.814Z,5.10
2023-03-28T07:45:20.216Z,5.11
2023-03-28T07:47:47.015Z,5.25
2023-03-28T07:50:13.460Z,5.35
2023-03-28T07:52:45.326Z,5.28
2023-03-28T07:55:13.722Z,5.40
2023-03-28T07:57:40.397Z,5.52
2023-03-28T08:00:12.999Z,5.57
2023-03-28T08:02:44.209Z,5.61
2023-03-28T08:05:11.384Z,5.69
2023-03-28T08:07:37.834Z,5.71
2023-03-28T08:10:04.580Z,5.83
2023-03-28T08:12:31.502Z,5.88
2023-03-28T08:14:57.918Z,5.93
2023-03-28T08:17:24.436Z,5.85
2023-03-28T08:19:51.094Z,6.04
2023-03-28T08:22:17.585Z,6.09
2023-03-28T08:24:44.326Z,6.14
2023-03-28T08:27:10.834Z,6.27
2023-03-28T08:29:37.268Z,6.29
2023-03-28T08:32:06.181Z,6.46
2023-03-28T08:34:32.885Z,6.32
2023-03-28T08:36:59.895Z,6.42
2023-03-28T08:39:26.414Z,6.33
2023-03-28T08:42:10.505Z,6.35
2023-03-28T08:44:58.296Z,6.49
2023-03-28T08:47:32.339Z,6.50
2023-03-28T08:50:24.157Z,6.47
2023-03-28T08:52:50.900Z,6.55
2023-03-28T08:55:34.120Z,6.56
2023-03-28T08:58:00.796Z,6.59
2023-03-28T09:00:33.227Z,6.65
2023-03-28T09:03:00.258Z,6.76
2023-03-28T09:05:45.615Z,6.80
2023-03-28T09:08:23.268Z,7.01
2023-03-28T09:11:08.500Z,7.13
2023-03-28T09:13:46.951Z,7.23
2023-03-28T09:16:39.539Z,7.18
2023-03-28T09:19:40.700Z,7.22
2023-03-28T09:22:33.249Z,7.19
2023-03-28T09:25:20.644Z,7.31
2023-03-28T09:28:14.622Z,7.45
2023-03-28T09:30:44.470Z,7.53
2023-03-28T09:33:16.327Z,7.53
2023-03-28T09:35:43.380Z,7.55
2023-03-28T09:38:33.588Z,7.46
2023-03-28T09:41:03.810Z,7.48
2023-03-28T09:43:36.630Z,7.41
2023-03-28T09:46:18.735Z,7.36
2023-03-28T09:48:45.500Z,7.58
2023-03-28T09:51:16.979Z,7.74
2023-03-28T09:53:44.270Z,7.83
2023-03-28T09:56:29.567Z,7.87
2023-03-28T09:58:58.296Z,7.80
2023-03-28T10:01:38.856Z,7.84
2023-03-28T10:04:14.426Z,7.88
2023-03-28T10:06:42.249Z,7.89
2023-03-28T10:09:30.867Z,7.86
2023-03-28T10:12:00.313Z,7.73
2023-03-28T10:14:41.331Z,7.80
2023-03-28T10:17:36.681Z,7.73
2023-03-28T10:20:21.529Z,7.93
2023-03-28T10:22:50.342Z,7.92
2023-03-28T10:25:22.253Z,8.06
2023-03-28T10:27:50.961Z,8.21
2023-03-28T10:30:22.703Z,8.37
2023-03-28T10:33:09.057Z,8.38
2023-03-28T10:35:35.634Z,8.37
2023-03-28T10:38:04.773Z,8.39
2023-03-28T10:40:32.556Z,8.38
2023-03-28T10:43:01.857Z,8.40
2023-03-28T10:45:39.524Z,8.28
2023-03-28T10:48:26.977Z,8.33
2023-03-28T10:50:54.797Z,8.42
2023-03-28T10:53:45.647Z,8.53
2023-03-28T10:56:26.778Z,8.64
2023-03-28T11:03:12.045Z,8.77
2023-03-28T11:06:02.071Z,8.85
2023-03-28T11:08:44.797Z,8.99
2023-03-28T11:11:35.944Z,8.95
2023-03-28T11:14:20.665Z,8.89
2023-03-28T11:17:05.743Z,8.88
2023-03-28T11:19:43.419Z,8.90
2023-03-28T11:22:36.000Z,8.88
2023-03-28T11:25:12.149Z,8.86
2023-03-28T11:28:15.662Z,8.88
2023-03-28T11:30:44.291Z,8.97
2023-03-28T11:33:30.493Z,9.00
2023-03-28T11:36:05.819Z,8.95
2023-03-28T11:38:36.988Z,8.90
2023-03-28T11:41:15.423Z,8.80
2023-03-28T11:43:56.208Z,8.79
2023-03-28T11:46:34.657Z,8.73
2023-03-28T11:49:13.777Z,8.73
2023-03-28T11:52:00.318Z,8.72
2023-03-28T11:54:32.558Z,8.71
2023-03-28T11:57:21.874Z,8.75
2023-03-28T11:59:53.597Z,8.90
2023-03-28T12:03:04.797Z,9.02
2023-03-28T12:05:41.939Z,9.11
2023-03-28T12:08:12.548Z,9.03
2023-03-28T12:10:42.274Z,8.97
2023-03-28T12:13:17.237Z,9.00
2023-03-28T12:15:56.778Z,8.99
2023-03-28T12:18:45.782Z,9.04
2023-03-28T12:21:17.335Z,9.11
2023-03-28T12:23:59.419Z,9.17
2023-03-28T12:26:36.128Z,9.17
2023-03-28T12:29:15.274Z,9.14
2023-03-28T12:31:48.365Z,9.00
2023-03-28T12:34:39.975Z,8.95
2023-03-28T12:37:17.405Z,8.85
2023-03-28T12:39:52.491Z,8.77
2023-03-28T12:42:20.297Z,8.70
2023-03-28T12:44:52.885Z,8.61
2023-03-28T12:47:26.342Z,8.51
2023-03-28T12:49:58.049Z,8.45
2023-03-28T12:52:28.669Z,8.48
2023-03-28T12:55:07.946Z,8.48
2023-03-28T12:57:40.861Z,8.47
2023-03-28T13:00:13.554Z,8.38
2023-03-28T13:02:47.573Z,8.32
2023-03-28T13:05:24.993Z,8.33
2023-03-28T13:07:57.470Z,8.37
2023-03-28T13:10:35.708Z,8.28
2023-03-28T13:13:38.440Z,8.24
2023-03-28T13:16:12.107Z,8.24
2023-03-28T13:18:46.814Z,8.24
2023-03-28T13:21:41.689Z,8.25
2023-03-28T13:24:33.308Z,8.25
2023-03-28T13:27:04.248Z,8.32
2023-03-28T13:29:51.120Z,8.40
2023-03-28T13:32:22.015Z,8.47
2023-03-28T13:34:50.301Z,8.50
2023-03-28T13:37:23.358Z,8.61
2023-03-28T13:39:58.267Z,8.69
2023-03-28T13:42:33.816Z,8.78
2023-03-28T13:45:06.446Z,8.84
2023-03-28T13:47:36.592Z,8.87
2023-03-28T13:50:09.755Z,8.99
2023-03-28T13:52:36.682Z,9.14
2023-03-28T13:55:16.547Z,9.35
2023-03-28T13:57:44.166Z,9.55
2023-03-28T14:00:16.283Z,9.67
2023-03-28T14:02:47.061Z,9.73
2023-03-28T14:05:22.795Z,9.78
2023-03-28T14:07:51.649Z,9.87
2023-03-28T14:10:35.928Z,9.91
2023-03-28T14:13:05.532Z,9.90
2023-03-28T14:15:35.275Z,9.88
2023-03-28T14:18:02.534Z,9.90
2023-03-28T14:20:29.394Z,9.89
2023-03-28T14:23:00.266Z,9.84
2023-03-28T14:25:27.416Z,9.82
2023-03-28T14:27:56.661Z,9.83
2023-03-28T14:30:26.199Z,9.89
2023-03-28T14:33:01.438Z,9.91
2023-03-28T14:35:30.036Z,9.93
2023-03-28T14:37:58.457Z,10.01
2023-03-28T14:40:24.754Z,10.05
2023-03-28T14:42:56.364Z,10.03
2023-03-28T14:45:26.221Z,10.05
2023-03-28T14:47:53.114Z,10.06
2023-03-28T14:50:20.260Z,10.10
2023-03-28T14:52:47.058Z,10.13
2023-03-28T14:55:24.264Z,10.15
2023-03-28T14:57:52.362Z,10.20
2023-03-28T15:00:22.615Z,10.17
2023-03-28T15:02:51.457Z,10.20
2023-03-28T15:05:19.871Z,10.23
2023-03-28T15:07:56.082Z,10.23
2023-03-28T15:10:24.785Z,10.21
2023-03-28T15:13:03.288Z,10.21
2023-03-28T15:15:38.214Z,10.26
2023-03-28T15:18:11.816Z,10.23
2023-03-28T15:20:38.959Z,10.26
2023-03-28T15:23:15.586Z,10.33
2023-03-28T15:25:43.576Z,10.38
2023-03-28T15:28:12.536Z,10.40
2023-03-28T15:30:46.135Z,10.38
2023-03-28T15:33:17.687Z,10.46
2023-03-28T15:35:44.743Z,10.46
2023-03-28T15:38:21.790Z,10.45
2023-03-28T15:40:50.326Z,10.43
2023-03-28T15:43:25.821Z,10.31
2023-03-28T15:46:00.166Z,10.33
2023-03-28T15:48:27.112Z,10.32
2023-03-28T15:50:54.424Z,10.29
2023-03-28T15:53:21.488Z,10.27
2023-03-28T15:55:49.459Z,10.25
2023-03-28T15:58:20.743Z,10.22
2023-03-28T16:00:56.256Z,10.24
2023-03-28T16:03:34.215Z,10.22
2023-03-28T16:06:23.300Z,10.25
2023-03-28T16:08:57.752Z,10.27
2023-03-28T16:11:26.717Z,10.28
2023-03-28T16:13:53.169Z,10.30
2023-03-28T16:16:24.807Z,10.32
2023-03-28T16:18:51.370Z,10.35
2023-03-28T16:21:19.443Z,10.42
2023-03-28T16:23:46.266Z,10.39
2023-03-28T16:26:13.018Z,10.38
2023-03-28T16:28:39.544Z,10.39
2023-03-28T16:31:06.220Z,10.36
2023-03-28T16:33:32.628Z,10.32
2023-03-28T16:36:00.388Z,10.26
2023-03-28T16:38:27.287Z,10.23
2023-03-28T16:40:53.862Z,10.20
2023-03-28T16:43:20.388Z,10.16
2023-03-28T16:45:48.530Z,10.11
2023-03-28T16:48:24.339Z,10.03
2023-03-28T16:51:20.153Z,9.89
2023-03-28T16:53:58.536Z,9.85
2023-03-28T16:56:30.513Z,9.82
2023-03-28T16:59:13.935Z,9.73
2023-03-28T17:01:43.001Z,9.71
2023-03-28T17:04:09.603Z,9.66
2023-03-28T17:06:36.121Z,9.64
2023-03-28T17:09:06.834Z,9.56
2023-03-28T17:11:39.819Z,9.49
2023-03-28T17:14:06.527Z,9.42
2023-03-28T17:16:33.153Z,9.31
2023-03-28T17:18:59.686Z,9.24
2023-03-28T17:21:26.560Z,9.14
2023-03-28T17:23:53.238Z,9.04
2023-03-28T17:26:19.717Z,8.93
2023-03-28T17:28:46.612Z,8.81
2023-03-28T17:31:16.775Z,8.73
2023-03-28T17:33:44.219Z,8.68
2023-03-28T17:42:40.310Z,8.45
2023-03-28T17:45:07.465Z,8.40
2023-03-28T17:47:34.461Z,8.35
2023-03-28T17:50:01.348Z,8.32
2023-03-28T17:52:29.942Z,8.28
2023-03-28T17:54:57.753Z,8.23
2023-03-28T17:57:24.465Z,8.19
2023-03-28T17:59:51.352Z,8.16
2023-03-28T18:02:17.819Z,8.10
2023-03-28T18:04:44.253Z,8.02
2023-03-28T18:07:16.371Z,7.99
2023-03-28T18:09:44.308Z,7.94
2023-03-28T18:12:11.392Z,7.90
2023-03-28T18:14:38.348Z,7.85
2023-03-28T18:17:05.869Z,7.81
2023-03-28T18:19:32.370Z,7.76
2023-03-28T18:22:00.770Z,7.72
2023-03-28T18:24:27.323Z,7.66
2023-03-28T18:26:53.938Z,7.62
2023-03-28T18:29:20.435Z,7.58
2023-03-28T18:31:47.361Z,7.54
2023-03-28T18:34:13.984Z,7.50
2023-03-28T18:36:43.945Z,7.46
2023-03-28T18:39:10.523Z,7.43
2023-03-28T18:41:37.241Z,7.38
2023-03-28T18:44:04.413Z,7.33
2023-03-28T18:46:31.034Z,7.28
2023-03-28T18:49:00.814Z,7.21
2023-03-28T18:51:27.967Z,7.15
2023-03-28T18:53:55.036Z,7.10
2023-03-28T18:56:22.041Z,7.04
2023-03-28T18:58:50.931Z,6.99
2023-03-28T19:01:18.628Z,6.95
2023-03-28T19:03:47.112Z,6.93
2023-03-28T19:06:15.153Z,6.90
2023-03-28T19:08:43.653Z,6.87
2023-03-28T19:11:15.435Z,6.85
2023-03-28T19:13:42.560Z,6.81
2023-03-28T19:16:12.507Z,6.79
2023-03-28T19:18:40.771Z,6.77
2023-03-28T19:21:07.980Z,6.75
2023-03-28T19:23:36.821Z,6.72
2023-03-28T19:26:07.046Z,6.70
2023-03-28T19:28:34.101Z,6.70
2023-03-28T19:31:03.454Z,6.70
2023-03-28T19:33:29.918Z,6.70
2023-03-28T19:35:56.692Z,6.68
2023-03-28T19:38:24.504Z,6.67
2023-03-28T19:40:57.432Z,6.65
2023-03-28T19:43:24.390Z,6.64
2023-03-28T19:45:50.973Z,6.63
2023-03-28T19:48:17.520Z,6.60
2023-03-28T19:50:44.306Z,6.57
2023-03-28T19:53:11.362Z,6.55
2023-03-28T19:55:37.815Z,6.52
2023-03-28T19:58:07.326Z,6.47
2023-03-28T20:00:33.849Z,6.44
2023-03-28T20:03:00.852Z,6.40
2023-03-28T20:05:27.394Z,6.37
2023-03-28T20:07:53.858Z,6.32
2023-03-28T20:10:20.350Z,6.29
2023-03-28T20:12:46.818Z,6.23
2023-03-28T20:15:13.306Z,6.17
2023-03-28T20:17:39.780Z,6.11
2023-03-28T20:20:07.054Z,6.06
2023-03-28T20:22:34.370Z,6.00
2023-03-28T20:25:01.420Z,5.94
2023-03-28T20:27:29.154Z,5.90
2023-03-28T20:29:55.854Z,5.87
2023-03-28T20:32:22.451Z,5.83
2023-03-28T20:34:49.038Z,5.80
2023-03-28T20:37:15.642Z,5.78
2023-03-28T20:39:42.110Z,5.76
2023-03-28T20:42:09.083Z,5.74
2023-03-28T20:44:38.612Z,5.71
2023-03-28T20:47:10.600Z,5.70
2023-03-28T20:49:38.405Z,5.68
2023-03-28T20:52:07.881Z,5.66
2023-03-28T20:54:35.155Z,5.65
2023-03-28T20:57:01.719Z,5.63
2023-03-28T20:59:28.337Z,5.64
2023-03-28T21:01:54.922Z,5.65
2023-03-28T21:04:22.385Z,5.68
2023-03-28T21:06:50.238Z,5.69
2023-03-28T21:09:18.081Z,5.73
2023-03-28T21:11:45.016Z,5.75
2023-03-28T21:14:13.490Z,5.76
2023-03-28T21:16:40.524Z,5.76
2023-03-28T21:19:07.134Z,5.78
2023-03-28T21:21:34.239Z,5.79
2023-03-28T21:24:01.807Z,5.79
2023-03-28T21:26:29.220Z,5.80
2023-03-28T21:28:55.892Z,5.81
2023-03-28T21:31:25.582Z,5.83
2023-03-28T21:33:55.372Z,5.85
2023-03-28T21:36:22.017Z,5.86
2023-03-28T21:38:48.751Z,5.87
2023-03-28T21:41:15.955Z,5.86
2023-03-28T21:43:42.538Z,5.87
2023-03-28T21:46:09.645Z,5.87
2023-03-28T21:48:36.929Z,5.89
2023-03-28T21:51:04.459Z,5.90
2023-03-28T21:53:33.396Z,5.89
2023-03-28T21:56:00.083Z,5.87
2023-03-28T21:58:29.018Z,5.88
2023-03-28T22:00:55.771Z,5.88
2023-03-28T22:03:22.501Z,5.89
2023-03-28T22:05:51.719Z,5.87
2023-03-28T22:08:18.879Z,5.86
2023-03-28T22:10:48.485Z,5.85
2023-03-28T22:13:15.297Z,5.84
2023-03-28T22:15:42.162Z,5.81
2023-03-28T22:18:09.250Z,5.82
2023-03-28T22:20:37.594Z,5.77
2023-03-28T22:23:04.736Z,5.75
2023-03-28T22:25:34.860Z,5.76
2023-03-28T22:28:04.054Z,5.74
2023-03-28T22:30:31.366Z,5.71
2023-03-28T22:32:58.149Z,5.69
2023-03-28T22:35:24.653Z,5.67
2023-03-28T22:37:51.472Z,5.65
2023-03-28T22:40:18.969Z,5.64
2023-03-28T22:42:45.757Z,5.62
2023-03-28T22:45:12.376Z,5.60
2023-03-28T22:47:41.983Z,5.58
2023-03-28T22:50:11.326Z,5.55
2023-03-28T22:52:38.924Z,5.50
2023-03-28T22:55:06.012Z,5.47
2023-03-28T22:57:32.967Z,5.43
2023-03-28T22:59:59.998Z,5.37
2023-03-28T23:02:26.509Z,5.33
2023-03-28T23:04:54.285Z,5.28
2023-03-28T23:07:20.939Z,5.25
2023-03-28T23:09:47.471Z,5.23
2023-03-28T23:12:13.959Z,5.19
2023-03-28T23:14:40.688Z,5.19
2023-03-28T23:17:08.056Z,5.18
2023-03-28T23:19:34.630Z,5.15
2023-03-28T23:22:01.480Z,5.15
2023-03-28T23:24:28.040Z,5.14
2023-03-28T23:26:55.643Z,5.14
2023-03-28T23:29:22.725Z,5.14
2023-03-28T23:31:49.430Z,5.12
2023-03-28T23:34:16.444Z,5.11
2023-03-28T23:36:45.989Z,5.09
2023-03-28T23:39:13.452Z,5.11
2023-03-28T23:41:40.986Z,5.10
2023-03-28T23:44:07.871Z,5.11
2023-03-28T23:46:34.756Z,5.09
2023-03-28T23:49:01.498Z,5.07
2023-03-28T23:51:29.258Z,5.06
2023-03-28T23:53:56.351Z,5.06
2023-03-28T23:56:23.840Z,5.06
2023-03-28T23:58:50.379Z,5.05
